createdAt,value
2019-03-13T00:01:24.039Z,1.67
2019-03-13T00:03:50.580Z,2.00
2019-03-13T00:06:17.078Z,5.87
2019-03-13T00:08:43.646Z,2.40
2019-03-13T00:11:10.315Z,4.00
2019-03-13T00:13:36.794Z,1.50
2019-03-13T00:16:03.286Z,5.90
2019-03-13T00:18:29.832Z,2.13
2019-03-13T00:20:56.399Z,3.23
2019-03-13T00:23:22.808Z,2.07
2019-03-13T00:25:49.503Z,2.20
2019-03-13T00:28:15.964Z,2.13
2019-03-13T00:30:42.489Z,1.73
2019-03-13T00:33:09.146Z,3.30
2019-03-13T00:35:35.784Z,1.80
2019-03-13T00:38:02.421Z,6.93
2019-03-13T00:40:28.892Z,4.40
2019-03-13T00:42:55.378Z,1.60
2019-03-13T00:45:21.979Z,4.10
2019-03-13T00:47:48.369Z,2.80
2019-03-13T00:50:27.335Z,1.67
2019-03-13T00:52:53.851Z,2.17
2019-03-13T00:55:20.329Z,1.30
2019-03-13T00:57:46.705Z,2.50
2019-03-13T01:00:15.126Z,5.20
2019-03-13T01:02:43.519Z,3.33
2019-03-13T01:05:12.022Z,1.93
2019-03-13T01:07:38.532Z,1.37
2019-03-13T01:10:07.343Z,1.77
2019-03-13T01:12:33.754Z,3.00
2019-03-13T01:15:00.193Z,1.50
2019-03-13T01:17:26.802Z,2.37
2019-03-13T01:19:53.320Z,4.27
2019-03-13T01:22:20.590Z,2.03
2019-03-13T01:24:47.038Z,2.17
2019-03-13T01:27:13.632Z,1.57
2019-03-13T01:29:39.903Z,3.13
2019-03-13T01:32:24.731Z,3.53
2019-03-13T01:34:53.002Z,2.73
2019-03-13T01:37:19.307Z,3.60
2019-03-13T01:39:45.726Z,5.17
2019-03-13T01:42:12.189Z,1.50
2019-03-13T01:44:40.752Z,2.37
2019-03-13T01:47:06.802Z,2.67
2019-03-13T01:49:33.297Z,2.57
2019-03-13T01:51:59.675Z,2.87
2019-03-13T01:54:26.187Z,3.77
2019-03-13T01:56:52.739Z,2.37
2019-03-13T01:59:19.226Z,2.13
2019-03-13T02:01:45.725Z,6.00
2019-03-13T02:04:12.364Z,3.23
2019-03-13T02:06:38.756Z,4.70
2019-03-13T02:09:05.800Z,3.70
2019-03-13T02:11:32.276Z,5.27
2019-03-13T02:13:58.750Z,9.23
2019-03-13T02:16:25.230Z,4.83
2019-03-13T02:18:51.716Z,3.70
2019-03-13T02:21:18.218Z,3.40
2019-03-13T02:23:44.559Z,4.17
2019-03-13T02:26:11.058Z,1.93
2019-03-13T02:28:37.489Z,2.27
2019-03-13T02:31:04.251Z,3.83
2019-03-13T02:33:30.719Z,2.23
2019-03-13T02:35:56.997Z,2.13
2019-03-13T02:38:23.507Z,5.30
2019-03-13T02:40:49.946Z,2.07
2019-03-13T02:43:16.419Z,3.63
2019-03-13T02:45:43.058Z,2.87
2019-03-13T02:48:09.536Z,7.63
2019-03-13T02:50:36.003Z,2.83
2019-03-13T02:53:02.507Z,3.40
2019-03-13T02:55:28.883Z,3.73
2019-03-13T02:57:55.450Z,6.13
2019-03-13T03:00:26.359Z,2.57
2019-03-13T03:02:54.651Z,6.83
2019-03-13T03:05:21.046Z,4.53
2019-03-13T03:07:47.643Z,3.17
2019-03-13T03:10:14.241Z,7.20
2019-03-13T03:12:40.735Z,3.23
2019-03-13T03:15:13.130Z,2.43
2019-03-13T03:17:39.568Z,2.20
2019-03-13T03:20:11.878Z,2.30
2019-03-13T03:22:38.467Z,3.73
2019-03-13T03:25:08.142Z,3.30
2019-03-13T03:27:34.677Z,2.50
2019-03-13T03:30:01.239Z,4.63
2019-03-13T03:32:27.715Z,2.13
2019-03-13T03:34:54.246Z,6.47
2019-03-13T03:37:20.743Z,3.73
2019-03-13T03:39:47.209Z,4.67
2019-03-13T03:42:13.875Z,3.10
2019-03-13T03:44:40.342Z,3.00
2019-03-13T03:47:06.928Z,5.50
2019-03-13T03:49:33.321Z,3.37
2019-03-13T03:51:59.817Z,2.23
2019-03-13T03:54:26.399Z,3.23
2019-03-13T03:56:52.926Z,3.90
2019-03-13T03:59:19.426Z,1.83
2019-03-13T04:01:46.005Z,3.20
2019-03-13T04:04:12.425Z,2.23
2019-03-13T04:06:39.011Z,2.33
2019-03-13T04:09:05.613Z,2.80
2019-03-13T04:11:32.068Z,5.77
2019-03-13T04:13:58.483Z,3.33
2019-03-13T04:16:25.057Z,4.73
2019-03-13T04:18:51.593Z,3.47
2019-03-13T04:21:17.990Z,2.57
2019-03-13T04:23:44.467Z,7.57
2019-03-13T04:26:12.723Z,4.37
2019-03-13T04:28:39.336Z,4.20
2019-03-13T04:31:05.788Z,4.43
2019-03-13T04:33:32.258Z,11.60
2019-03-13T04:35:58.645Z,4.97
2019-03-13T04:38:25.184Z,4.90
2019-03-13T04:40:51.635Z,2.40
2019-03-13T04:43:18.246Z,3.07
2019-03-13T04:45:44.619Z,6.67
2019-03-13T04:48:11.206Z,3.77
2019-03-13T04:50:37.774Z,4.03
2019-03-13T04:53:04.327Z,5.47
2019-03-13T04:55:30.856Z,3.17
2019-03-13T04:57:57.397Z,2.37
2019-03-13T05:00:24.006Z,3.13
2019-03-13T05:02:50.436Z,2.17
2019-03-13T05:05:35.698Z,2.20
2019-03-13T05:08:02.459Z,3.17
2019-03-13T05:10:28.772Z,2.53
2019-03-13T05:12:56.610Z,4.17
2019-03-13T05:15:23.487Z,3.03
2019-03-13T05:17:50.087Z,3.47
2019-03-13T05:20:16.621Z,2.43
2019-03-13T05:22:42.894Z,3.40
2019-03-13T05:25:09.504Z,3.70
2019-03-13T05:27:36.006Z,2.87
2019-03-13T05:30:04.477Z,4.17
2019-03-13T05:32:30.973Z,3.67
2019-03-13T05:34:57.500Z,5.67
2019-03-13T05:37:24.296Z,6.67
2019-03-13T05:39:50.632Z,3.67
2019-03-13T05:42:17.071Z,9.57
2019-03-13T05:44:43.494Z,2.90
2019-03-13T05:47:11.898Z,1.93
2019-03-13T05:49:38.505Z,1.70
2019-03-13T05:52:04.977Z,5.67
2019-03-13T05:54:31.463Z,4.27
2019-03-13T05:56:57.862Z,3.33
2019-03-13T05:59:24.490Z,4.67
2019-03-13T06:01:53.472Z,7.63
2019-03-13T06:04:19.876Z,3.90
2019-03-13T06:06:46.349Z,2.73
2019-03-13T06:09:12.940Z,2.90
2019-03-13T06:11:39.481Z,3.93
2019-03-13T06:14:06.041Z,3.93
2019-03-13T06:16:32.534Z,4.33
2019-03-13T06:18:59.088Z,6.00
2019-03-13T06:21:25.690Z,5.60
2019-03-13T06:23:52.289Z,5.03
2019-03-13T06:26:18.724Z,3.30
2019-03-13T06:28:45.966Z,3.93
2019-03-13T06:31:14.692Z,5.53
2019-03-13T06:33:41.339Z,7.13
2019-03-13T06:36:07.902Z,5.03
2019-03-13T06:38:34.309Z,4.00
2019-03-13T06:41:00.610Z,3.80
2019-03-13T06:43:27.087Z,6.17
2019-03-13T06:45:53.729Z,5.43
2019-03-13T06:48:21.419Z,5.03
2019-03-13T06:50:48.026Z,4.40
2019-03-13T06:53:14.567Z,4.77
2019-03-13T06:55:41.225Z,3.87
2019-03-13T06:58:07.761Z,4.63
2019-03-13T07:00:36.368Z,4.10
2019-03-13T07:03:19.658Z,4.53
2019-03-13T07:06:05.997Z,4.10
2019-03-13T07:08:34.571Z,3.00
2019-03-13T07:11:05.743Z,3.17
2019-03-13T07:13:39.625Z,4.43
2019-03-13T07:16:07.820Z,4.67
2019-03-13T07:18:36.182Z,5.00
2019-03-13T07:21:16.434Z,5.23
2019-03-13T07:23:44.825Z,4.33
2019-03-13T07:26:16.093Z,3.83
2019-03-13T07:28:47.310Z,4.27
2019-03-13T07:31:30.425Z,3.77
2019-03-13T07:34:04.411Z,4.83
2019-03-13T07:36:35.612Z,5.40
2019-03-13T07:39:07.124Z,4.83
2019-03-13T07:41:51.516Z,6.47
2019-03-13T07:44:36.335Z,4.53
2019-03-13T07:47:04.718Z,4.07
2019-03-13T07:49:50.818Z,5.83
2019-03-13T07:52:24.729Z,5.63
2019-03-13T07:54:53.040Z,4.53
2019-03-13T07:57:21.428Z,5.13
2019-03-13T07:59:55.610Z,5.07
2019-03-13T08:02:42.067Z,4.57
2019-03-13T08:05:11.037Z,4.67
2019-03-13T08:07:39.439Z,4.27
2019-03-13T08:10:23.729Z,5.47
2019-03-13T08:12:54.715Z,5.50
2019-03-13T08:15:40.992Z,6.17
2019-03-13T08:18:09.464Z,6.07
2019-03-13T08:20:55.682Z,7.07
2019-03-13T08:23:29.565Z,7.27
2019-03-13T08:25:57.865Z,7.00
2019-03-13T08:28:37.916Z,6.40
2019-03-13T08:31:08.826Z,4.33
2019-03-13T08:33:55.750Z,5.33
2019-03-13T08:36:23.972Z,8.23
2019-03-13T08:38:58.347Z,3.43
2019-03-13T08:41:42.970Z,5.63
2019-03-13T08:44:16.888Z,6.50
2019-03-13T08:46:45.385Z,4.33
2019-03-13T08:49:22.983Z,8.30
2019-03-13T08:52:00.334Z,5.70
2019-03-13T08:54:28.907Z,4.73
2019-03-13T08:57:15.445Z,6.27
2019-03-13T08:59:49.673Z,7.03
2019-03-13T09:02:21.013Z,6.53
2019-03-13T09:05:04.384Z,5.13
2019-03-13T09:07:44.577Z,6.63
2019-03-13T09:10:17.295Z,6.10
2019-03-13T09:12:45.674Z,4.87
2019-03-13T09:15:23.052Z,6.37
2019-03-13T09:18:06.435Z,8.00
2019-03-13T09:20:43.625Z,4.70
2019-03-13T09:23:26.877Z,6.87
2019-03-13T09:26:09.917Z,5.53
2019-03-13T09:28:56.026Z,7.80
2019-03-13T09:31:30.034Z,4.50
2019-03-13T09:34:00.890Z,5.10
2019-03-13T09:36:34.892Z,7.53
2019-03-13T09:39:03.158Z,6.77
2019-03-13T09:41:37.188Z,9.73
2019-03-13T09:44:08.101Z,8.73
2019-03-13T09:46:39.390Z,5.90
2019-03-13T09:49:16.629Z,8.97
2019-03-13T09:51:47.649Z,7.43
2019-03-13T09:54:24.731Z,10.57
2019-03-13T09:57:05.042Z,7.43
2019-03-13T09:59:43.233Z,7.80
2019-03-13T10:02:06.253Z,7.70
2019-03-13T10:04:34.448Z,9.80
2019-03-13T10:07:11.520Z,8.30
2019-03-13T10:09:39.846Z,14.00
2019-03-13T10:12:08.296Z,11.00
2019-03-13T10:14:39.455Z,11.73
2019-03-13T10:17:11.091Z,7.13
2019-03-13T10:19:46.886Z,9.93
2019-03-13T10:22:15.271Z,10.97
2019-03-13T10:24:43.587Z,9.27
2019-03-13T10:27:28.484Z,11.53
2019-03-13T10:30:02.525Z,12.33
2019-03-13T10:32:33.694Z,8.70
2019-03-13T10:35:05.104Z,13.40
2019-03-13T10:37:39.466Z,8.80
2019-03-13T10:40:26.621Z,9.57
2019-03-13T10:42:54.882Z,10.67
2019-03-13T10:45:23.241Z,11.67
2019-03-13T10:47:51.543Z,8.60
2019-03-13T10:50:19.898Z,11.13
2019-03-13T10:52:50.808Z,12.33
2019-03-13T10:55:21.798Z,8.93
2019-03-13T10:57:55.778Z,24.60
2019-03-13T11:00:40.370Z,12.30
2019-03-13T11:03:24.952Z,13.80
2019-03-13T11:06:01.973Z,11.40
2019-03-13T11:08:45.042Z,12.97
2019-03-13T11:11:13.595Z,17.07
2019-03-13T11:13:53.889Z,10.70
2019-03-13T11:16:34.278Z,10.60
2019-03-13T11:19:02.671Z,12.83
2019-03-13T11:21:40.032Z,11.60
2019-03-13T11:24:10.913Z,11.67
2019-03-13T11:26:45.286Z,9.07
2019-03-13T11:29:19.137Z,15.50
2019-03-13T11:32:05.222Z,7.97
2019-03-13T11:34:48.343Z,12.80
2019-03-13T11:37:25.271Z,7.90
2019-03-13T11:39:53.717Z,11.27
2019-03-13T11:42:28.006Z,10.27
2019-03-13T11:45:04.927Z,10.00
2019-03-13T11:47:48.108Z,8.93
2019-03-13T11:50:16.705Z,10.00
2019-03-13T11:53:03.089Z,12.93
2019-03-13T11:55:49.227Z,7.13
2019-03-13T11:58:17.626Z,9.90
2019-03-13T12:01:00.735Z,9.13
2019-03-13T12:03:29.087Z,9.60
2019-03-13T12:06:09.260Z,7.93
2019-03-13T12:08:37.533Z,8.87
2019-03-13T12:11:06.228Z,6.07
2019-03-13T12:13:40.526Z,5.83
2019-03-13T12:16:25.496Z,10.07
2019-03-13T12:18:56.766Z,9.90
2019-03-13T12:21:30.935Z,8.40
2019-03-13T12:24:14.426Z,9.33
2019-03-13T12:26:59.217Z,11.30
2019-03-13T12:29:33.138Z,11.43
2019-03-13T12:32:16.927Z,10.50
2019-03-13T12:34:48.040Z,11.00
2019-03-13T12:37:18.947Z,13.10
2019-03-13T12:40:03.519Z,15.97
2019-03-13T12:42:37.623Z,13.50
2019-03-13T12:45:26.279Z,11.73
2019-03-13T12:47:54.770Z,14.37
2019-03-13T12:50:28.034Z,11.83
2019-03-13T12:52:59.006Z,12.03
2019-03-13T12:55:29.890Z,9.83
2019-03-13T12:58:07.254Z,10.70
2019-03-13T13:00:35.610Z,11.40
2019-03-13T13:03:15.969Z,11.37
2019-03-13T13:05:53.285Z,14.27
2019-03-13T13:08:21.531Z,10.97
2019-03-13T13:10:49.745Z,15.20
2019-03-13T13:13:20.979Z,10.47
2019-03-13T13:15:49.295Z,11.13
2019-03-13T13:18:20.503Z,12.87
2019-03-13T13:20:46.975Z,11.13
2019-03-13T13:23:13.522Z,9.27
2019-03-13T13:25:39.958Z,11.37
2019-03-13T13:28:06.708Z,12.07
2019-03-13T13:30:33.366Z,14.27
2019-03-13T13:32:59.821Z,9.60
2019-03-13T13:35:26.093Z,10.07
2019-03-13T13:37:52.553Z,13.67
2019-03-13T13:40:19.077Z,12.37
2019-03-13T13:42:45.469Z,14.87
2019-03-13T13:45:32.914Z,13.00
2019-03-13T13:47:58.590Z,13.33
2019-03-13T13:50:25.110Z,13.27
2019-03-13T13:52:51.609Z,8.20
2019-03-13T13:55:18.149Z,9.67
2019-03-13T13:57:44.614Z,13.90
2019-03-13T14:00:11.319Z,9.90
2019-03-13T14:02:37.970Z,10.27
2019-03-13T14:05:04.598Z,25.10
2019-03-13T14:07:31.329Z,14.00
2019-03-13T14:09:57.830Z,13.83
2019-03-13T14:12:24.326Z,11.70
2019-03-13T14:14:50.694Z,12.00
2019-03-13T14:17:17.307Z,14.10
2019-03-13T14:19:43.965Z,11.23
2019-03-13T14:22:10.318Z,11.97
2019-03-13T14:24:36.819Z,12.10
2019-03-13T14:27:13.852Z,13.20
2019-03-13T14:29:31.957Z,10.93
2019-03-13T14:31:58.421Z,10.23
2019-03-13T14:34:27.736Z,10.10
2019-03-13T14:36:54.125Z,10.63
2019-03-13T14:39:20.661Z,8.93
2019-03-13T14:41:47.017Z,7.67
2019-03-13T14:44:13.368Z,11.23
2019-03-13T14:46:39.881Z,10.47
2019-03-13T14:49:06.492Z,8.37
2019-03-13T14:51:33.135Z,14.03
2019-03-13T14:53:59.495Z,8.77
2019-03-13T14:56:26.010Z,7.90
2019-03-13T14:58:52.654Z,9.77
2019-03-13T15:01:19.068Z,7.10
2019-03-13T15:03:45.603Z,10.70
2019-03-13T15:06:12.173Z,8.90
2019-03-13T15:08:38.785Z,8.07
2019-03-13T15:11:06.568Z,8.33
2019-03-13T15:13:34.639Z,8.33
2019-03-13T15:16:06.505Z,9.53
2019-03-13T15:18:38.074Z,4.90
2019-03-13T15:21:09.062Z,7.80
2019-03-13T15:23:39.641Z,6.97
2019-03-13T15:26:05.548Z,7.63
2019-03-13T15:28:32.147Z,9.20
2019-03-13T15:30:58.565Z,8.77
2019-03-13T15:33:25.199Z,12.47
2019-03-13T15:35:51.587Z,9.37
2019-03-13T15:38:18.425Z,7.00
2019-03-13T15:40:48.182Z,7.00
2019-03-13T15:43:14.371Z,6.83
2019-03-13T15:45:40.834Z,5.30
2019-03-13T15:48:07.443Z,6.03
2019-03-13T15:50:33.967Z,6.90
2019-03-13T15:53:00.435Z,9.43
2019-03-13T15:55:27.031Z,7.77
2019-03-13T15:57:53.405Z,8.27
2019-03-13T16:00:26.773Z,5.33
2019-03-13T16:02:55.580Z,6.27
2019-03-13T16:05:24.769Z,7.23
2019-03-13T16:07:51.689Z,4.83
2019-03-13T16:10:19.053Z,6.57
2019-03-13T16:12:45.405Z,11.60
2019-03-13T16:15:21.624Z,7.97
2019-03-13T16:17:48.326Z,5.00
2019-03-13T16:20:17.030Z,6.67
2019-03-13T16:22:45.383Z,9.10
2019-03-13T16:25:12.073Z,8.50
2019-03-13T16:27:38.653Z,10.07
2019-03-13T16:30:08.943Z,7.77
2019-03-13T16:32:43.735Z,11.87
2019-03-13T16:35:05.992Z,7.57
2019-03-13T16:37:32.388Z,4.67
2019-03-13T16:39:58.925Z,6.80
2019-03-13T16:42:25.426Z,8.43
2019-03-13T16:44:52.025Z,6.53
2019-03-13T16:47:18.557Z,7.83
2019-03-13T16:49:44.916Z,6.07
2019-03-13T16:52:11.380Z,7.57
2019-03-13T16:54:37.950Z,7.57
2019-03-13T16:57:04.475Z,7.87
2019-03-13T16:59:31.062Z,9.57
2019-03-13T17:01:57.618Z,7.40
2019-03-13T17:04:25.033Z,5.53
2019-03-13T17:06:51.650Z,6.50
2019-03-13T17:09:18.185Z,13.40
2019-03-13T17:11:44.702Z,7.67
2019-03-13T17:14:11.185Z,8.40
2019-03-13T17:16:37.780Z,7.93
2019-03-13T17:19:04.320Z,9.97
2019-03-13T17:21:30.833Z,9.87
2019-03-13T17:23:57.383Z,5.70
2019-03-13T17:26:23.736Z,8.00
2019-03-13T17:28:50.486Z,6.67
2019-03-13T17:31:16.898Z,9.50
2019-03-13T17:33:43.302Z,5.10
2019-03-13T17:36:09.766Z,9.67
2019-03-13T17:38:36.045Z,7.93
2019-03-13T17:41:02.633Z,11.00
2019-03-13T17:43:38.382Z,7.07
2019-03-13T17:45:57.513Z,6.90
2019-03-13T17:48:24.092Z,17.57
2019-03-13T17:50:50.533Z,11.60
2019-03-13T17:53:17.262Z,11.17
2019-03-13T17:55:43.793Z,9.93
2019-03-13T17:58:10.340Z,13.50
2019-03-13T18:00:46.168Z,7.10
2019-03-13T18:03:12.755Z,6.07
2019-03-13T18:05:39.384Z,12.30
2019-03-13T18:08:05.893Z,9.83
2019-03-13T18:10:32.421Z,8.97
2019-03-13T18:12:58.964Z,10.33
2019-03-13T18:15:25.622Z,7.53
2019-03-13T18:17:52.163Z,12.53
2019-03-13T18:20:22.981Z,11.37
2019-03-13T18:22:49.535Z,15.13
2019-03-13T18:25:18.249Z,14.87
2019-03-13T18:27:44.404Z,9.27
2019-03-13T18:30:21.963Z,8.73
2019-03-13T18:32:48.543Z,14.80
2019-03-13T18:35:15.841Z,11.03
2019-03-13T18:37:42.480Z,11.67
2019-03-13T18:40:16.409Z,12.70
2019-03-13T18:42:42.898Z,14.27
2019-03-13T18:45:12.708Z,12.40
2019-03-13T18:47:39.187Z,11.23
2019-03-13T18:50:09.142Z,14.90
2019-03-13T18:52:35.422Z,12.83
2019-03-13T18:55:02.203Z,10.00
2019-03-13T18:57:28.644Z,8.70
2019-03-13T18:59:55.202Z,8.50
2019-03-13T19:02:21.445Z,15.00
2019-03-13T19:04:47.929Z,13.90
2019-03-13T19:07:14.461Z,11.33
2019-03-13T19:09:40.951Z,12.63
2019-03-13T19:12:07.365Z,14.43
2019-03-13T19:14:33.745Z,12.37
2019-03-13T19:17:00.299Z,16.87
2019-03-13T19:19:26.705Z,14.03
2019-03-13T19:21:53.205Z,14.50
2019-03-13T19:24:19.867Z,10.83
2019-03-13T19:26:46.475Z,20.77
2019-03-13T19:29:13.032Z,20.10
2019-03-13T19:31:39.812Z,17.33
2019-03-13T19:34:06.173Z,16.00
2019-03-13T19:36:32.582Z,16.70
2019-03-13T19:38:59.085Z,18.17
2019-03-13T19:41:25.581Z,14.97
2019-03-13T19:43:52.063Z,15.77
2019-03-13T19:46:18.700Z,13.33
2019-03-13T19:48:45.170Z,10.17
2019-03-13T19:51:11.799Z,14.27
2019-03-13T19:53:38.195Z,10.70
2019-03-13T19:56:04.788Z,16.43
2019-03-13T19:58:31.288Z,10.13
2019-03-13T20:00:57.789Z,14.10
2019-03-13T20:03:24.272Z,22.90
2019-03-13T20:05:50.793Z,15.93
2019-03-13T20:08:17.230Z,13.93
2019-03-13T20:10:43.614Z,10.50
2019-03-13T20:13:10.080Z,18.13
2019-03-13T20:15:36.610Z,18.97
2019-03-13T20:18:03.938Z,13.67
2019-03-13T20:20:30.419Z,13.37
2019-03-13T20:23:07.891Z,14.33
2019-03-13T20:25:34.537Z,12.17
2019-03-13T20:28:01.760Z,14.57
2019-03-13T20:30:28.619Z,14.33
2019-03-13T20:32:55.104Z,13.93
2019-03-13T20:35:22.017Z,9.90
2019-03-13T20:37:48.671Z,16.03
2019-03-13T20:40:23.256Z,14.80
2019-03-13T20:42:50.341Z,18.20
2019-03-13T20:45:28.054Z,13.40
2019-03-13T20:47:54.417Z,10.17
2019-03-13T20:50:21.186Z,9.93
2019-03-13T20:52:47.741Z,11.53
2019-03-13T20:55:15.748Z,14.63
2019-03-13T20:57:42.154Z,12.30
2019-03-13T21:00:22.750Z,13.50
2019-03-13T21:02:49.406Z,12.57
2019-03-13T21:05:15.896Z,8.30
2019-03-13T21:07:44.154Z,16.03
2019-03-13T21:10:11.060Z,12.20
2019-03-13T21:12:37.550Z,13.70
2019-03-13T21:15:09.738Z,13.03
2019-03-13T21:17:36.339Z,18.60
2019-03-13T21:20:04.525Z,14.83
2019-03-13T21:22:31.016Z,15.40
2019-03-13T21:24:57.296Z,16.77
2019-03-13T21:27:23.573Z,12.77
2019-03-13T21:29:49.967Z,16.37
2019-03-13T21:32:16.496Z,15.80
2019-03-13T21:34:42.745Z,12.43
2019-03-13T21:37:09.211Z,17.23
2019-03-13T21:39:35.618Z,12.37
2019-03-13T21:42:02.253Z,13.37
2019-03-13T21:44:28.520Z,10.87
2019-03-13T21:46:55.177Z,20.20
2019-03-13T21:49:21.563Z,18.83
2019-03-13T21:51:47.843Z,16.10
2019-03-13T21:54:14.315Z,14.97
2019-03-13T21:56:40.793Z,12.63
2019-03-13T21:59:07.337Z,14.87
2019-03-13T22:01:33.725Z,11.93
2019-03-13T22:04:00.099Z,14.57
2019-03-13T22:06:29.004Z,17.50
2019-03-13T22:08:54.744Z,19.57
2019-03-13T22:11:21.300Z,13.47
2019-03-13T22:13:47.814Z,17.37
2019-03-13T22:16:14.216Z,20.73
2019-03-13T22:18:40.775Z,19.00
2019-03-13T22:21:07.274Z,18.30
2019-03-13T22:23:33.675Z,15.53
2019-03-13T22:26:00.055Z,15.50
2019-03-13T22:28:26.329Z,12.00
2019-03-13T22:30:52.936Z,15.73
2019-03-13T22:33:19.616Z,18.17
2019-03-13T22:35:46.031Z,18.97
2019-03-13T22:38:12.578Z,15.97
2019-03-13T22:40:39.090Z,16.83
2019-03-13T22:43:05.570Z,13.37
2019-03-13T22:45:32.264Z,11.40
2019-03-13T22:47:58.734Z,16.47
2019-03-13T22:50:25.236Z,17.03
2019-03-13T22:52:51.653Z,25.47
2019-03-13T22:55:18.222Z,25.87
2019-03-13T22:57:44.848Z,18.87
2019-03-13T23:00:51.532Z,17.63
2019-03-13T23:03:19.919Z,22.00
2019-03-13T23:05:46.545Z,14.17
2019-03-13T23:08:13.116Z,19.93
2019-03-13T23:10:39.608Z,11.53
2019-03-13T23:13:06.070Z,14.50
2019-03-13T23:15:32.728Z,13.50
2019-03-13T23:17:59.389Z,15.17
2019-03-13T23:20:26.090Z,12.97
2019-03-13T23:22:52.582Z,14.50
2019-03-13T23:25:18.821Z,12.57
2019-03-13T23:27:45.589Z,12.00
2019-03-13T23:30:12.100Z,17.67
2019-03-13T23:32:38.632Z,11.63
2019-03-13T23:35:05.296Z,13.43
2019-03-13T23:37:31.724Z,14.93
2019-03-13T23:39:58.336Z,18.70
2019-03-13T23:42:24.678Z,13.10
2019-03-13T23:44:51.209Z,13.33
2019-03-13T23:47:17.585Z,13.87
2019-03-13T23:49:43.966Z,12.40
2019-03-13T23:52:10.374Z,15.60
2019-03-13T23:54:36.911Z,15.03
2019-03-13T23:57:03.407Z,11.30
2019-03-13T23:59:29.844Z,12.20
